Great Barton, United Kingdom
Current Conditions -  °F | °C
As of 5:58 AM on Friday 19 Dec 2014 (Local Time) from EGUL Reporting Station
Overcast Overcast  
Wind Chill: 44°   Ceiling: 3200
Heat Index: 48°   Visibility: 6mi
Dew Point: 48°   Wind: 9mph
Humidity: 100%   Direction: 270°W
Pressure: 29.73"   Gusts: NA
Location:  52.27°N, 0.77°E
Report Text: EGUL 190558Z AUTO 27008KT 9999 OVC032 09/09 A2973 RMK AO2 RAE0545DZB0545E0547 SLP071 P0004 60026 T00900090 10129 20090 53019
Loading
Personal Weather Stations






























Interactive Weather Map New forecast layout! Learn more

10-Day Weather Forecast

Advertisements
Track Severe Weather on mobile